Time;durP1;ratioP1;P1;durP2;ratioP2;P2;SDS_P1;SDS_P2;PMS_P1;PMS_P2;Temp;Humidity;BMP_temperature;BMP_pressure;BME280_temperature;BME280_humidity;BME280_pressure;Samples;Min_cycle;Max_cycle;Signal;HPM_P1;HPM_P2
2022/12/20 00:01:54;;;;;;;28.70;15.45;;;;;;;2.36;96.93;101358.84;7399915;19;20501;-70
2022/12/20 00:04:22;;;;;;;27.33;16.38;;;;;;;2.35;96.00;101354.53;7397617;19;20078;-69
2022/12/20 00:06:53;;;;;;;26.10;15.57;;;;;;;2.37;96.46;101354.56;7397629;19;20509;-70
2022/12/20 00:09:21;;;;;;;27.95;16.65;;;;;;;2.36;96.60;101345.91;7397136;19;20540;-69
2022/12/20 00:11:50;;;;;;;27.00;15.38;;;;;;;2.38;96.89;101338.19;7399911;19;20039;-70
2022/12/20 00:14:19;;;;;;;24.98;14.88;;;;;;;2.37;95.79;101339.88;7399839;19;20082;-70
2022/12/20 00:16:47;;;;;;;26.23;15.57;;;;;;;2.39;96.53;101338.22;7397975;19;20078;-70
2022/12/20 00:19:16;;;;;;;27.00;15.43;;;;;;;2.40;96.01;101332.22;7399250;19;20498;-70
2022/12/20 00:21:44;;;;;;;23.42;14.85;;;;;;;2.40;96.10;101321.84;7399327;19;20019;-70
2022/12/20 00:24:15;;;;;;;26.50;15.68;;;;;;;2.42;96.72;101314.97;7396749;19;20078;-70
2022/12/20 00:26:44;;;;;;;28.00;15.68;;;;;;;2.43;95.55;101311.53;7397869;19;20090;-69
2022/12/20 00:29:12;;;;;;;28.00;15.70;;;;;;;2.46;95.29;101323.69;7398900;19;20082;-69
2022/12/20 00:31:41;;;;;;;27.05;15.65;;;;;;;2.44;95.05;101333.16;7399152;19;20014;-69
2022/12/20 00:34:10;;;;;;;25.70;15.43;;;;;;;2.49;96.08;101328.94;7399184;19;20078;-69
2022/12/20 00:36:41;;;;;;;26.50;15.75;;;;;;;2.51;96.77;101323.78;7397443;19;20036;-69
2022/12/20 00:39:11;;;;;;;23.90;14.27;;;;;;;2.52;96.04;101317.75;7399304;19;20102;-70
2022/12/20 00:41:42;;;;;;;27.15;16.23;;;;;;;2.54;96.34;101334.19;7398545;19;20015;-70
2022/12/20 00:44:10;;;;;;;26.00;15.13;;;;;;;2.55;96.03;101335.94;7398471;19;20018;-70
2022/12/20 00:46:39;;;;;;;27.65;16.10;;;;;;;2.56;95.66;101328.19;7397695;19;20087;-70
2022/12/20 00:49:07;;;;;;;25.65;15.60;;;;;;;2.57;95.53;101321.31;7398260;19;20502;-70
2022/12/20 00:51:36;;;;;;;25.02;14.98;;;;;;;2.60;95.50;101322.25;7398580;19;20022;-70
2022/12/20 00:54:04;;;;;;;20.90;13.65;;;;;;;2.60;96.32;101330.03;7398091;19;20015;-70
2022/12/20 00:56:33;;;;;;;23.30;14.00;;;;;;;2.63;96.01;101347.34;7397192;19;20018;-70
2022/12/20 00:59:04;;;;;;;23.90;14.82;;;;;;;2.65;95.19;101332.69;7398066;19;20074;-70
2022/12/20 01:01:35;;;;;;;25.65;14.95;;;;;;;2.68;95.22;101330.19;7395774;19;20485;-70
2022/12/20 01:04:03;;;;;;;25.00;14.95;;;;;;;2.70;96.23;101325.88;7395925;19;20007;-70
2022/12/20 01:06:32;;;;;;;24.88;15.00;;;;;;;2.72;95.33;101329.41;7396421;19;20033;-70
2022/12/20 01:09:02;;;;;;;22.23;14.48;;;;;;;2.74;95.41;101330.31;7397645;19;20484;-70
2022/12/20 01:11:32;;;;;;;25.00;15.07;;;;;;;2.78;94.48;101339.03;7398082;19;20018;-70
2022/12/20 01:14:06;;;;;;;25.80;14.85;;;;;;;2.82;94.74;101334.75;7397541;19;20457;-70
2022/12/20 01:16:38;;;;;;;22.25;14.55;;;;;;;2.83;94.95;101326.13;7396837;19;20086;-70
2022/12/20 01:19:07;;;;;;;25.02;15.35;;;;;;;2.86;93.86;101315.84;7397464;19;20015;-70
2022/12/20 01:21:37;;;;;;;23.58;14.35;;;;;;;2.88;93.58;101319.31;7397605;19;20019;-70
2022/12/20 01:24:06;;;;;;;20.98;12.90;;;;;;;2.91;94.74;101330.63;7395600;19;20016;-70
2022/12/20 01:26:34;;;;;;;21.83;13.27;;;;;;;2.92;94.05;101341.88;7396117;19;20026;-70
2022/12/20 01:29:05;;;;;;;22.85;13.38;;;;;;;2.93;92.96;101336.72;7395528;19;20022;-70
2022/12/20 01:31:34;;;;;;;20.85;13.10;;;;;;;2.95;93.27;101339.34;7397797;19;20018;-70
2022/12/20 01:34:03;;;;;;;24.73;13.73;;;;;;;2.94;92.85;101329.81;7396777;19;20572;-70
2022/12/20 01:36:33;;;;;;;22.85;13.77;;;;;;;2.95;93.15;101334.16;7396917;19;20094;-70
2022/12/20 01:39:04;;;;;;;22.58;13.35;;;;;;;2.93;93.70;101330.66;7397455;19;20017;-70
2022/12/20 01:41:33;;;;;;;22.67;13.95;;;;;;;2.91;92.40;101332.34;7397034;19;20010;-70
2022/12/20 01:44:07;;;;;;;20.17;13.93;;;;;;;2.91;93.46;101322.00;7396948;19;20090;-70
2022/12/20 01:46:38;;;;;;;21.33;13.52;;;;;;;2.90;92.41;101315.91;7395991;19;20089;-70
2022/12/20 01:49:12;;;;;;;23.05;14.52;;;;;;;2.90;92.81;101310.72;7397245;19;20041;-70
2022/12/20 01:51:44;;;;;;;24.27;14.10;;;;;;;2.87;92.50;101291.66;7397152;19;20018;-70
2022/12/20 01:54:18;;;;;;;22.95;14.65;;;;;;;2.89;93.27;101295.16;7395095;19;20078;-70
2022/12/20 01:56:53;;;;;;;23.02;13.70;;;;;;;2.87;92.94;101291.66;7395487;19;20043;-70
2022/12/20 01:59:24;;;;;;;21.67;13.13;;;;;;;2.87;93.52;101302.00;7397002;19;20069;-70
2022/12/20 02:01:53;;;;;;;25.40;14.88;;;;;;;2.87;91.89;101297.72;7396048;19;20036;-70
2022/12/20 02:04:21;;;;;;;23.83;14.98;;;;;;;2.86;93.29;101308.94;7396315;19;20087;-70
2022/12/20 02:06:50;;;;;;;25.65;14.77;;;;;;;2.85;92.62;101298.53;7394523;19;20078;-70
2022/12/20 02:09:18;;;;;;;22.65;13.45;;;;;;;2.87;93.28;101299.41;7394576;19;20022;-70
2022/12/20 02:12:05;;;;;;;20.95;14.05;;;;;;;2.86;93.50;101305.47;7396164;19;20078;-70
2022/12/20 02:14:50;;;;;;;25.83;14.15;;;;;;;2.87;94.20;101302.91;7396045;19;20035;-70
2022/12/20 02:17:32;;;;;;;22.02;13.68;;;;;;;2.87;93.52;101308.09;7394626;19;20026;-70
2022/12/20 02:20:24;;;;;;;21.10;13.70;;;;;;;2.88;93.80;101314.13;7396286;19;20018;-70
2022/12/20 02:23:07;;;;;;;22.60;13.27;;;;;;;2.87;93.79;101302.00;7394924;19;20552;-70
2022/12/20 02:25:48;;;;;;;23.02;13.43;;;;;;;2.86;94.02;101298.56;7395015;19;20015;-70
2022/12/20 02:28:33;;;;;;;19.95;13.07;;;;;;;2.85;93.62;101302.00;7396232;19;20075;-70
2022/12/20 02:31:09;;;;;;;23.55;14.38;;;;;;;2.86;93.88;101300.28;7395311;19;20028;-70
2022/12/20 02:33:38;;;;;;;21.20;13.13;;;;;;;2.85;92.67;101291.63;7395909;19;20086;-70
2022/12/20 02:36:07;;;;;;;25.20;14.20;;;;;;;2.84;94.27;101295.06;7394228;19;20034;-70
2022/12/20 02:38:37;;;;;;;20.50;13.05;;;;;;;2.85;93.99;101288.19;7395457;19;20022;-70
2022/12/20 02:41:10;;;;;;;24.25;14.35;;;;;;;2.85;94.30;101281.25;7394972;19;20432;-70
2022/12/20 02:46:28;;;;;;;24.58;13.02;;;;;;;2.86;93.66;101280.41;7394280;19;20074;-70
2022/12/20 02:48:57;;;;;;;;;;;;;;;2.87;93.53;101274.41;7395663;19;20086;-69
2022/12/20 02:51:30;;;;;;;21.88;13.57;;;;;;;2.87;94.52;101284.78;7394926;19;19987;-70
2022/12/20 02:54:00;;;;;;;22.20;14.43;;;;;;;2.87;94.48;101287.34;7395365;19;20035;-70
2022/12/20 02:56:33;;;;;;;21.63;12.70;;;;;;;2.88;94.28;101296.88;7393778;19;20031;-69
2022/12/20 02:59:07;;;;;;;21.65;13.38;;;;;;;2.88;93.95;101283.94;7394945;19;20090;-70
2022/12/20 03:01:44;;;;;;;22.88;13.27;;;;;;;2.90;94.89;101277.03;7394413;19;20350;-70
2022/12/20 03:04:13;;;;;;;22.38;13.52;;;;;;;2.94;94.50;101267.59;7395206;19;20017;-70
2022/12/20 03:06:56;;;;;;;21.42;13.07;;;;;;;2.95;94.02;101258.97;7393081;19;20091;-67
2022/12/20 03:09:25;;;;;;;23.60;13.45;;;;;;;2.98;93.81;101256.44;7394909;19;20078;-69
2022/12/20 03:11:54;;;;;;;22.88;13.85;;;;;;;2.99;93.18;101260.78;7394111;19;20529;-69
2022/12/20 03:14:23;;;;;;;21.90;13.80;;;;;;;3.01;94.68;101253.00;7394041;19;20082;-69
2022/12/20 03:16:54;;;;;;;22.30;13.95;;;;;;;3.02;95.02;101255.66;7392740;19;20041;-69
2022/12/20 03:19:23;;;;;;;22.35;14.18;;;;;;;3.01;93.81;101253.00;7394205;19;20031;-69
2022/12/20 03:21:52;;;;;;;21.88;13.80;;;;;;;3.02;94.69;101263.44;7395602;19;20086;-69
2022/12/20 03:24:21;;;;;;;20.92;13.60;;;;;;;3.03;94.73;101256.53;7393818;19;20078;-70
2022/12/20 03:26:49;;;;;;;19.95;12.70;;;;;;;3.02;94.70;101250.47;7395734;19;20015;-69
2022/12/20 03:29:18;;;;;;;23.25;12.82;;;;;;;3.02;93.97;101254.78;7400977;19;20425;-69
2022/12/20 03:31:46;;;;;;;20.75;13.88;;;;;;;3.02;94.19;101255.66;7400974;19;20491;-68
2022/12/20 03:34:17;;;;;;;22.65;14.23;;;;;;;3.02;93.24;101268.63;7401204;19;20078;-69
2022/12/20 03:36:46;;;;;;;19.98;13.15;;;;;;;3.03;93.61;101260.00;7398880;19;20489;-69
2022/12/20 03:39:14;;;;;;;22.38;13.13;;;;;;;3.05;94.26;101266.06;7401061;19;20014;-69
2022/12/20 03:41:43;;;;;;;23.95;13.23;;;;;;;3.04;93.53;101261.72;7400455;19;20082;-68
2022/12/20 03:44:11;;;;;;;21.30;13.25;;;;;;;3.07;93.85;101263.50;7401064;19;20086;-68
2022/12/20 03:46:40;;;;;;;21.48;12.55;;;;;;;3.06;93.01;101269.56;7398632;19;20430;-68
2022/12/20 03:49:08;;;;;;;19.63;13.18;;;;;;;3.08;92.80;101279.09;7400755;19;20083;-69
2022/12/20 03:51:39;;;;;;;22.45;14.00;;;;;;;3.10;92.78;101285.16;7400803;19;20082;-68
2022/12/20 03:54:08;;;;;;;23.15;13.57;;;;;;;3.14;92.76;101285.25;7401118;19;20082;-69
2022/12/20 03:56:36;;;;;;;19.70;13.07;;;;;;;3.16;91.81;101283.53;7398886;19;20015;-69
2022/12/20 03:59:05;;;;;;;22.15;13.98;;;;;;;3.17;92.19;101264.53;7400146;19;20086;-69
2022/12/20 04:01:35;;;;;;;23.50;13.20;;;;;;;3.18;91.81;101261.97;7400394;19;20087;-69
2022/12/20 04:04:04;;;;;;;22.52;13.18;;;;;;;3.19;93.43;101252.47;7400693;19;20014;-69
2022/12/20 04:06:33;;;;;;;22.88;14.70;;;;;;;3.23;92.29;101260.31;7398247;19;20023;-68
2022/12/20 04:09:04;;;;;;;19.98;13.23;;;;;;;3.23;91.79;101255.13;7399841;19;20074;-69
2022/12/20 04:11:32;;;;;;;22.48;13.20;;;;;;;3.30;92.25;101260.44;7400244;19;20082;-69
2022/12/20 04:14:08;;;;;;;21.70;13.63;;;;;;;3.32;93.30;101267.38;7399471;19;20413;-69
2022/12/20 04:16:36;;;;;;;26.42;14.35;;;;;;;3.35;93.29;101263.97;7397924;19;20512;-69
2022/12/20 04:19:05;;;;;;;19.58;12.25;;;;;;;3.38;93.45;101270.06;7396866;19;20017;-69
2022/12/20 04:21:35;;;;;;;20.23;12.73;;;;;;;3.41;92.17;101259.78;7399566;19;20014;-68
2022/12/20 04:24:07;;;;;;;23.67;13.77;;;;;;;3.46;93.42;101266.75;7398006;19;20010;-69
2022/12/20 04:26:36;;;;;;;24.55;13.18;;;;;;;3.48;91.90;101267.66;7397987;19;20024;-68
2022/12/20 04:29:05;;;;;;;21.25;12.63;;;;;;;3.53;92.80;101258.22;7399450;19;20082;-68
2022/12/20 04:31:33;;;;;;;22.75;13.25;;;;;;;3.55;91.27;101261.69;7399380;19;20074;-69
2022/12/20 04:34:02;;;;;;;19.67;13.25;;;;;;;3.59;92.56;101250.53;7398891;19;20082;-69
2022/12/20 04:36:30;;;;;;;21.42;13.32;;;;;;;3.62;93.12;101244.50;7397779;19;20078;-70
2022/12/20 04:38:58;;;;;;;18.92;12.90;;;;;;;3.65;93.42;101250.63;7393710;19;20018;-70
2022/12/20 04:41:36;;;;;;;20.58;12.82;;;;;;;3.67;93.10;101235.06;7396575;19;20082;-69
2022/12/20 04:44:04;;;;;;;20.55;13.50;;;;;;;3.69;93.66;101234.25;7396135;19;20477;-69
2022/12/20 04:46:33;;;;;;;22.10;12.73;;;;;;;3.69;92.22;101229.06;7396705;19;20353;-68
2022/12/20 04:49:01;;;;;;;19.30;12.52;;;;;;;3.74;93.21;101234.28;7396406;19;20019;-69
2022/12/20 04:51:30;;;;;;;19.95;13.07;;;;;;;3.75;92.96;101228.25;7398393;19;20014;-69
2022/12/20 04:53:56;;;;;;;20.80;13.15;;;;;;;3.78;92.20;101219.63;7398262;19;20085;-69
2022/12/20 04:56:27;;;;;;;19.70;13.80;;;;;;;3.81;92.90;101222.28;7395614;19;20027;-69
2022/12/20 04:59:01;;;;;;;20.20;12.85;;;;;;;3.84;93.16;101214.53;7398275;19;20024;-69
2022/12/20 05:01:29;;;;;;;21.35;12.98;;;;;;;3.86;93.05;101225.81;7395954;19;20030;-71
2022/12/20 05:03:58;;;;;;;23.05;12.77;;;;;;;3.88;94.12;101230.19;7398044;19;20029;-71
2022/12/20 05:06:26;;;;;;;19.95;13.32;;;;;;;3.93;93.79;101238.03;7396853;19;20051;-70
2022/12/20 05:08:55;;;;;;;22.75;14.55;;;;;;;3.93;93.10;101232.84;7396207;19;20019;-70
2022/12/20 05:11:23;;;;;;;28.30;16.05;;;;;;;3.95;93.86;101231.13;7397994;19;20077;-70
2022/12/20 05:13:52;;;;;;;23.65;15.20;;;;;;;3.94;93.05;101221.59;7397530;19;20086;-72
2022/12/20 05:16:23;;;;;;;24.00;16.60;;;;;;;3.94;93.62;101218.13;7396475;19;20017;-73
2022/12/20 05:18:51;;;;;;;25.75;15.73;;;;;;;3.97;93.82;101228.53;7398302;19;20070;-71
2022/12/20 05:26:41;;;;;;;23.50;14.20;;;;;;;3.91;94.42;101229.34;7396086;19;20021;-70
2022/12/20 05:29:10;;;;;;;24.30;14.45;;;;;;;3.89;93.34;101225.84;7395072;19;20372;-71
2022/12/20 05:31:41;;;;;;;28.55;15.95;;;;;;;3.87;94.72;101224.97;7397345;19;20018;-71
2022/12/20 05:34:09;;;;;;;26.42;16.33;;;;;;;3.86;94.21;101220.63;7396777;19;20021;-70
2022/12/20 05:36:37;;;;;;;24.45;14.10;;;;;;;3.86;93.98;101223.22;7396404;19;20078;-71
2022/12/20 05:39:06;;;;;;;23.33;14.13;;;;;;;3.86;94.73;101218.03;7396906;19;20018;-68
2022/12/20 05:41:34;;;;;;;20.58;13.82;;;;;;;3.87;94.72;101222.38;7397099;19;20085;-70
2022/12/20 05:44:03;;;;;;;26.75;15.07;;;;;;;3.89;94.49;101223.25;7394808;19;20036;-70
2022/12/20 05:46:32;;;;;;;22.17;13.55;;;;;;;3.91;94.86;101218.97;7395453;19;20021;-72
2022/12/20 05:49:03;;;;;;;23.92;15.07;;;;;;;3.96;96.47;101204.31;7393763;19;20030;-73
2022/12/20 05:51:31;;;;;;;21.60;13.80;;;;;;;4.02;94.98;101211.28;7396695;19;20423;-72
2022/12/20 05:54:00;;;;;;;21.23;14.05;;;;;;;4.06;94.98;101215.69;7396277;19;20018;-72
2022/12/20 05:56:28;;;;;;;21.67;13.68;;;;;;;4.08;94.21;101201.88;7395226;19;20093;-72
2022/12/20 05:58:57;;;;;;;23.17;13.68;;;;;;;4.12;94.51;101197.59;7396358;19;20014;-72
2022/12/20 06:01:26;;;;;;;22.65;13.68;;;;;;;4.14;94.83;101208.00;7393836;19;20010;-71
2022/12/20 06:03:54;;;;;;;22.55;14.20;;;;;;;4.15;94.92;101196.75;7396100;19;20082;-72
2022/12/20 06:06:26;;;;;;;25.42;15.02;;;;;;;4.18;95.04;101196.78;7394643;19;20033;-72
2022/12/20 06:08:54;;;;;;;23.38;14.80;;;;;;;4.18;94.31;101199.38;7393536;19;20103;-71
2022/12/20 06:11:23;;;;;;;22.08;14.50;;;;;;;4.20;95.29;101201.16;7393933;19;20457;-72
2022/12/20 06:13:51;;;;;;;22.33;14.00;;;;;;;4.23;95.26;101195.13;7395430;19;20025;-74
2022/12/20 06:16:22;;;;;;;23.85;14.98;;;;;;;4.20;95.37;101177.78;7393794;19;20025;-70
2022/12/20 06:18:50;;;;;;;23.33;15.13;;;;;;;4.29;96.04;101195.19;7395251;19;20031;-71
2022/12/20 06:21:19;;;;;;;22.27;15.13;;;;;;;4.34;95.94;101193.50;7395986;19;20015;-71
2022/12/20 06:23:50;;;;;;;22.65;14.02;;;;;;;4.39;96.00;101201.38;7395233;19;20024;-72
2022/12/20 06:26:18;;;;;;;21.40;14.32;;;;;;;4.42;95.91;101190.13;7394577;19;20066;-72
2022/12/20 06:28:51;;;;;;;26.17;14.82;;;;;;;4.43;95.63;101202.28;7393603;19;20011;-73
2022/12/20 06:31:20;;;;;;;24.52;14.88;;;;;;;4.44;95.83;101191.88;7395095;19;20443;-72
2022/12/20 06:33:48;;;;;;;24.20;14.50;;;;;;;4.45;95.87;101198.84;7392950;19;20094;-72
2022/12/20 06:36:16;;;;;;;23.98;14.70;;;;;;;4.47;95.74;101201.44;7393222;19;20025;-71
2022/12/20 06:38:45;;;;;;;24.10;14.02;;;;;;;4.50;95.98;101215.34;7394783;19;20070;-71
2022/12/20 06:41:16;;;;;;;21.27;13.68;;;;;;;4.52;95.75;101207.56;7395023;19;20094;-72
2022/12/20 06:43:44;;;;;;;23.48;15.18;;;;;;;4.55;95.99;101195.47;7395743;19;20014;-72
2022/12/20 06:46:13;;;;;;;24.23;14.48;;;;;;;4.59;96.56;101204.19;7393656;19;20078;-70
2022/12/20 06:48:41;;;;;;;19.83;14.15;;;;;;;4.59;96.50;101201.59;7392956;19;20015;-71
2022/12/20 06:51:10;;;;;;;25.15;14.15;;;;;;;4.62;96.49;101206.78;7392346;19;20018;-72
2022/12/20 06:53:38;;;;;;;22.38;14.18;;;;;;;4.64;96.36;101207.69;7396132;19;20019;-71
2022/12/20 06:56:07;;;;;;;23.92;14.77;;;;;;;4.66;96.46;101212.91;7393770;19;20022;-70
2022/12/20 06:58:38;;;;;;;22.13;14.10;;;;;;;4.67;96.51;101215.50;7394698;19;20018;-70
2022/12/20 07:01:07;;;;;;;24.70;15.32;;;;;;;4.70;96.75;101219.88;7396252;19;20090;-70
2022/12/20 07:03:36;;;;;;;23.15;14.98;;;;;;;4.71;96.87;101219.91;7399018;19;20018;-70
2022/12/20 07:06:04;;;;;;;26.38;15.70;;;;;;;4.71;96.76;101217.31;7400778;19;20033;-71
2022/12/20 07:08:33;;;;;;;23.23;15.82;;;;;;;4.72;96.93;101216.41;7399984;19;20019;-70
2022/12/20 07:11:06;;;;;;;24.95;15.10;;;;;;;4.74;96.55;101224.25;7401531;19;20473;-70
2022/12/20 07:13:34;;;;;;;23.42;14.98;;;;;;;4.73;96.61;101228.56;7402352;19;20022;-70
2022/12/20 07:16:06;;;;;;;29.52;16.38;;;;;;;4.75;96.58;101233.78;7398476;19;20020;-70
2022/12/20 07:18:35;;;;;;;30.33;18.17;;;;;;;4.75;97.02;101235.53;7401830;19;20070;-71
2022/12/20 07:21:04;;;;;;;25.02;15.85;;;;;;;4.75;97.00;101222.53;7401495;19;20014;-70
2022/12/20 07:23:33;;;;;;;28.13;16.98;;;;;;;4.73;97.25;101225.97;7400836;19;20018;-71
2022/12/20 07:26:02;;;;;;;27.10;17.02;;;;;;;4.71;97.25;101222.50;7398998;19;20020;-71
2022/12/20 07:28:31;;;;;;;26.10;15.52;;;;;;;4.71;97.32;101217.31;7399497;19;20018;-71
2022/12/20 07:31:05;;;;;;;27.52;15.68;;;;;;;4.70;97.64;101223.34;7400716;19;20078;-71
2022/12/20 07:33:34;;;;;;;29.35;16.45;;;;;;;4.70;97.86;101225.06;7400662;19;20015;-72
2022/12/20 07:36:03;;;;;;;24.42;15.55;;;;;;;4.68;97.91;101219.84;7399731;19;20027;-70
2022/12/20 07:38:32;;;;;;;24.95;16.88;;;;;;;4.67;97.96;101222.44;7400853;19;20018;-75
2022/12/20 07:41:00;;;;;;;26.77;15.77;;;;;;;4.67;98.65;101218.09;7400803;19;20078;-72
2022/12/20 07:43:29;;;;;;;30.73;17.42;;;;;;;4.66;98.58;101226.78;7400704;19;20024;-71
2022/12/20 07:45:58;;;;;;;25.08;16.80;;;;;;;4.68;98.89;101225.06;7399630;19;20074;-70
2022/12/20 07:48:29;;;;;;;25.58;15.80;;;;;;;4.68;98.95;101227.66;7398709;19;20362;-70
2022/12/20 07:51:01;;;;;;;25.30;16.13;;;;;;;4.70;99.04;101233.75;7400163;19;20496;-71
2022/12/20 07:53:32;;;;;;;26.00;16.38;;;;;;;4.73;98.64;101238.13;7400193;19;20090;-70
2022/12/20 07:56:03;;;;;;;30.52;16.95;;;;;;;4.71;98.66;101232.00;7397432;19;20074;-70
2022/12/20 07:58:32;;;;;;;28.00;16.77;;;;;;;4.71;98.57;101230.31;7400111;19;20018;-72
2022/12/20 08:01:01;;;;;;;27.77;16.52;;;;;;;4.72;98.79;101223.38;7397376;19;20078;-71
2022/12/20 08:03:37;;;;;;;27.40;16.48;;;;;;;4.71;98.66;101225.09;7399692;19;20097;-70
2022/12/20 08:06:08;;;;;;;27.40;16.73;;;;;;;4.72;99.14;101226.81;7398810;19;20098;-71
2022/12/20 08:08:40;;;;;;;30.40;18.02;;;;;;;4.72;99.16;101226.81;7396863;19;20019;-71
2022/12/20 08:11:11;;;;;;;29.92;17.27;;;;;;;4.73;99.31;101219.91;7397099;19;20504;-71
2022/12/20 08:13:40;;;;;;;38.03;20.20;;;;;;;4.74;99.25;101221.66;7396382;19;20392;-75
2022/12/20 08:16:09;;;;;;;31.05;18.33;;;;;;;4.77;99.62;101226.03;7398076;19;20078;-68
2022/12/20 08:18:40;;;;;;;30.52;19.38;;;;;;;4.81;99.88;101227.78;7399053;19;20541;-68
2022/12/20 08:21:11;;;;;;;26.30;16.75;;;;;;;4.84;99.76;101233.00;7399881;19;20018;-68
2022/12/20 08:23:40;;;;;;;31.25;17.27;;;;;;;4.87;100.00;101231.31;7398832;19;20090;-73
2022/12/20 08:26:08;;;;;;;37.47;19.80;;;;;;;4.89;99.46;101229.59;7397562;19;20514;-70
2022/12/20 08:28:37;;;;;;;28.88;17.45;;;;;;;4.91;98.92;101224.41;7398505;19;20082;-71
2022/12/20 08:31:06;;;;;;;28.80;16.73;;;;;;;4.92;99.20;101226.16;7398407;19;20010;-70
2022/12/20 08:33:36;;;;;;;32.72;18.00;;;;;;;4.93;99.47;101216.63;7397154;19;20078;-70
2022/12/20 08:36:10;;;;;;;29.77;17.70;;;;;;;4.89;99.11;101218.31;7396290;19;20028;-70
2022/12/20 08:38:39;;;;;;;29.38;17.20;;;;;;;4.91;99.27;101227.00;7398692;19;20018;-71
2022/12/20 08:41:10;;;;;;;27.98;16.85;;;;;;;4.88;99.30;101229.59;7396175;19;20025;-71
2022/12/20 08:43:38;;;;;;;31.75;17.52;;;;;;;4.86;99.27;101229.56;7398908;19;20098;-71
2022/12/20 08:46:08;;;;;;;32.30;17.67;;;;;;;4.88;99.29;101232.19;7397786;19;20070;-71
2022/12/20 08:48:37;;;;;;;24.90;16.25;;;;;;;4.88;99.62;101222.66;7398080;19;20070;-71
2022/12/20 08:51:16;;;;;;;29.08;17.33;;;;;;;4.88;99.41;101221.78;7398443;19;20028;-71
2022/12/20 08:53:44;;;;;;;29.33;17.20;;;;;;;4.86;99.49;101221.75;7398715;19;20145;-71
2022/12/20 08:56:15;;;;;;;26.88;16.67;;;;;;;4.87;99.38;101222.66;7396976;19;20100;-70
2022/12/20 08:58:44;;;;;;;29.15;16.70;;;;;;;4.89;99.37;101223.50;7398903;19;20015;-71
2022/12/20 09:01:15;;;;;;;28.00;16.15;;;;;;;4.89;99.08;101213.13;7397531;19;20082;-71
2022/12/20 09:03:44;;;;;;;30.92;17.35;;;;;;;4.90;99.02;101199.25;7397492;19;20078;-69
2022/12/20 09:06:16;;;;;;;33.83;16.90;;;;;;;4.91;99.35;101203.59;7395985;19;20078;-68
2022/12/20 09:08:45;;;;;;;26.83;15.10;;;;;;;4.94;99.28;101201.06;7396610;19;20518;-68
2022/12/20 09:11:16;;;;;;;26.90;16.90;;;;;;;4.95;99.57;101205.38;7397449;19;20082;-69
2022/12/20 09:13:47;;;;;;;27.05;15.40;;;;;;;4.97;99.31;101200.22;7397226;19;20584;-68
2022/12/20 09:16:18;;;;;;;27.67;16.27;;;;;;;5.01;99.33;101209.78;7396647;19;20086;-69
2022/12/20 09:18:50;;;;;;;25.40;14.68;;;;;;;5.03;99.18;101208.91;7397209;19;20010;-70
2022/12/20 09:21:21;;;;;;;27.60;15.32;;;;;;;5.05;98.12;101202.00;7397777;19;20082;-69
2022/12/20 09:23:52;;;;;;;32.35;17.80;;;;;;;5.10;98.94;101203.78;7393434;19;20010;-69
2022/12/20 09:26:22;;;;;;;23.13;14.23;;;;;;;5.12;97.75;101205.53;7396255;19;20019;-69
2022/12/20 09:28:52;;;;;;;24.67;14.75;;;;;;;5.16;97.99;101216.84;7395725;19;20010;-69
2022/12/20 09:31:23;;;;;;;28.45;17.75;;;;;;;5.19;98.35;101214.25;7396320;19;20023;-69
2022/12/20 09:33:51;;;;;;;31.73;16.45;;;;;;;5.23;98.16;101216.00;7394304;19;20010;-69
2022/12/20 09:36:24;;;;;;;24.80;15.48;;;;;;;5.25;97.65;101211.69;7394165;19;20081;-69
2022/12/20 09:38:53;;;;;;;24.38;14.13;;;;;;;5.26;97.33;101222.97;7395259;19;20020;-69
2022/12/20 09:41:29;;;;;;;27.98;16.25;;;;;;;5.26;96.82;101216.03;7396552;19;20428;-70
2022/12/20 09:43:59;;;;;;;24.33;15.50;;;;;;;5.29;97.32;101223.00;7397013;19;20078;-69
2022/12/20 09:46:34;;;;;;;23.48;14.57;;;;;;;5.30;96.99;101217.81;7394164;19;20444;-69
2022/12/20 09:49:04;;;;;;;24.33;15.75;;;;;;;5.32;96.80;101226.50;7394152;19;20489;-69
2022/12/20 09:52:04;;;;;;;32.38;17.77;;;;;;;5.35;97.66;101220.44;7393752;19;20102;-70
2022/12/20 09:54:45;;;;;;;22.65;14.82;;;;;;;5.36;96.58;101220.44;7394429;19;20087;-69
2022/12/20 09:57:24;;;;;;;22.75;14.35;;;;;;;5.39;95.86;101217.84;7394277;19;20405;-69
2022/12/20 09:59:52;;;;;;;26.00;15.13;;;;;;;5.45;96.14;101213.59;7395738;19;20554;-69
2022/12/20 10:02:25;;;;;;;29.60;15.63;;;;;;;5.47;96.42;101199.72;7395658;19;20025;-69
2022/12/20 10:04:55;;;;;;;25.55;15.20;;;;;;;5.51;95.69;101203.19;7396035;19;20094;-69
2022/12/20 10:07:40;;;;;;;28.70;16.00;;;;;;;5.55;95.92;101204.97;7393943;19;20022;-69
2022/12/20 10:10:27;;;;;;;24.13;14.27;;;;;;;5.59;94.41;101196.31;7394391;19;20014;-69
2022/12/20 10:13:06;;;;;;;26.55;14.77;;;;;;;5.64;95.16;101196.34;7393670;19;20446;-70
2022/12/20 10:15:39;;;;;;;23.00;14.02;;;;;;;5.67;95.25;101193.75;7395447;19;20022;-71
2022/12/20 10:18:34;;;;;;;23.27;14.50;;;;;;;5.70;95.23;101185.97;7394220;19;20010;-70
2022/12/20 10:21:11;;;;;;;26.27;15.02;;;;;;;5.75;95.51;101180.78;7394051;19;20029;-70
2022/12/20 10:23:48;;;;;;;25.05;15.18;;;;;;;5.77;94.08;101172.09;7395228;19;20556;-70
2022/12/20 10:26:16;;;;;;;28.95;16.25;;;;;;;5.81;95.34;101163.47;7393937;19;20018;-70
2022/12/20 10:28:45;;;;;;;23.75;13.70;;;;;;;5.88;93.99;101159.16;7393318;19;20022;-70
2022/12/20 10:31:15;;;;;;;20.25;14.35;;;;;;;5.92;94.58;101157.44;7394755;19;20531;-70
2022/12/20 10:33:44;;;;;;;26.85;15.05;;;;;;;5.96;93.66;101154.81;7394781;19;20021;-71
2022/12/20 10:36:22;;;;;;;25.45;14.48;;;;;;;6.00;95.29;101159.25;7393708;19;20093;-69
2022/12/20 10:38:55;;;;;;;27.70;14.00;;;;;;;6.05;95.36;101151.41;7394427;19;20022;-69
2022/12/20 10:41:25;;;;;;;24.10;14.77;;;;;;;6.10;94.88;101141.88;7393543;19;20090;-69
2022/12/20 10:43:57;;;;;;;33.22;14.73;;;;;;;6.13;95.20;101136.69;7394109;19;20018;-69
2022/12/20 10:46:37;;;;;;;28.63;13.80;;;;;;;6.15;93.06;101134.09;7393071;19;20409;-69
2022/12/20 10:49:24;;;;;;;37.67;17.52;;;;;;;6.22;95.38;101133.25;7392091;19;20485;-70
2022/12/20 10:51:54;;;;;;;27.05;16.52;;;;;;;6.25;95.10;101132.38;7393924;19;20015;-69
2022/12/20 10:54:31;;;;;;;25.00;14.55;;;;;;;6.27;92.27;101123.72;7394141;19;20549;-69
2022/12/20 10:57:02;;;;;;;24.42;14.75;;;;;;;6.33;94.87;101128.03;7392634;19;20517;-70
2022/12/20 10:59:36;;;;;;;23.80;13.90;;;;;;;6.38;93.96;101115.03;7392933;19;20074;-69
2022/12/20 11:02:25;;;;;;;24.58;14.55;;;;;;;6.42;93.73;101119.38;7394344;19;20053;-70
2022/12/20 11:05:01;;;;;;;21.55;13.88;;;;;;;6.46;93.79;101108.09;7393446;19;20011;-71
2022/12/20 11:07:33;;;;;;;24.60;13.82;;;;;;;6.52;93.33;101115.91;7393177;19;20370;-70
2022/12/20 11:10:19;;;;;;;20.38;12.88;;;;;;;6.55;93.65;101105.50;7392859;19;20074;-73
2022/12/20 11:12:55;;;;;;;23.67;13.30;;;;;;;6.59;91.83;101103.78;7393537;19;20093;-71
2022/12/20 11:15:26;;;;;;;26.02;14.00;;;;;;;6.60;92.57;101095.94;7393048;19;20014;-71
2022/12/20 11:18:04;;;;;;;19.67;12.88;;;;;;;6.61;90.01;101091.59;7393773;19;20078;-70
2022/12/20 11:20:39;;;;;;;22.10;13.73;;;;;;;6.63;92.13;101082.88;7395458;19;20031;-71
2022/12/20 11:23:21;;;;;;;23.73;14.40;;;;;;;6.62;91.20;101083.78;7392841;19;20074;-70
2022/12/20 11:26:05;;;;;;;22.85;14.75;;;;;;;6.61;90.91;101082.03;7392464;19;20017;-71
2022/12/20 11:28:40;;;;;;;;;;;;;;;6.62;88.38;101080.28;7394654;19;20070;-72
2022/12/20 11:31:17;;;;;;;25.45;14.25;;;;;;;6.59;92.28;101075.09;7391768;19;19970;-68
2022/12/20 11:34:05;;;;;;;21.60;13.07;;;;;;;6.71;93.97;101074.22;7392736;19;20537;-69
2022/12/20 11:36:46;;;;;;;22.08;13.80;;;;;;;6.80;93.40;101076.84;7391705;19;20022;-70
2022/12/20 11:39:23;;;;;;;20.20;13.15;;;;;;;6.82;92.31;101060.31;7393026;19;20018;-72
2022/12/20 11:42:01;;;;;;;23.67;14.05;;;;;;;6.79;91.65;101062.91;7393577;19;20014;-71
2022/12/20 11:44:40;;;;;;;23.63;13.60;;;;;;;6.74;91.35;101056.81;7392665;19;20025;-71